Stations météo

réclame
Mon MeteoGroup
Melle, Belgique (6434): Température de l'air & dewpoint: 11.02.2019 15:00:00 - 17.02.2019 15:00:00 (CET)Melle, Belgique (6434): Vitesse du vent & gusts: 11.02.2019 15:00:00 - 17.02.2019 15:00:00 (CET)Melle, Belgique (6434): Direction du vent: 11.02.2019 15:00:00 - 17.02.2019 15:00:00 (CET)Melle, Belgique (6434): reduced air pressure: 11.02.2019 15:00:00 - 17.02.2019 15:00:00 (CET)Melle, Belgique (6434): Ensoleillement: 11.02.2019 15:00:00 - 17.02.2019 15:00:00 (CET)Melle, Belgique (6434): Quantités de précipitations: 11.02.2019 15:00:00 - 17.02.2019 15:00:00 (CET)
Date & Time tt [°C] td [°C] ff [km/h] ff [knt] fx [km/h] fx [knt] dd ppp [hPa] sd [min] rr [mm]
17.02.2019 15:00:00 15,0 3,2 20 11 31 17 S 1018,5 60 0,0
17.02.2019 14:00:00 14,7 3,7 19 11 32 17 S 1019,1 60 0,0
17.02.2019 13:00:00 13,5 4,6 18 10 33 18 S 1019,5 60 0,0
17.02.2019 12:00:00 11,6 3,8 16 9 26 14 S 1020,0 60 0,0
17.02.2019 11:00:00 9,7 3,4 14 8 24 13 S 1020,4 60 0,0
17.02.2019 10:00:00 8,7 2,8 7 4 17 9 SSE 1020,6 60 0,0
17.02.2019 09:00:00 6,9 1,5 9 5 25 13 SSE 1020,8 6 0,0
17.02.2019 08:00:00 6,7 1,3 14 8 23 12 SSE 1020,8 0 0,0
17.02.2019 07:00:00 6,0 2,2 7 4 14 8 SSE 1021,1 0 0,0
17.02.2019 06:00:00 6,0 2,7 6 4 14 8 SSE 1021,6 0 0,0
17.02.2019 05:00:00 5,5 2,6 7 4 11 6 SE 1022,0 0 0,0
17.02.2019 04:00:00 4,7 2,3 5 3 10 5 SE 1022,5 0 0,0
17.02.2019 03:00:00 5,7 2,6 5 3 14 7 SSE 1023,2 0 0,0
17.02.2019 02:00:00 5,7 2,8 4 2 8 5 SE 1023,6 0 0,0
17.02.2019 01:00:00 6,4 2,8 7 4 14 8 SSE 1024,0 0 0,0
17.02.2019 00:00:00 6,6 3,8 4 2 11 6 SSW 1024,2 0 0,0
16.02.2019 23:00:00 3,8 2,4 4 2 7 4 SSW 1024,7 0 0,0
16.02.2019 22:00:00 3,6 2,6 0 0 7 4 N 1024,9 0 0,0
16.02.2019 21:00:00 4,7 2,8 4 2 8 4 SE 1024,9 0 0,0
16.02.2019 20:00:00 7,6 5,0 4 2 11 6 SW 1025,2 0 0,0
16.02.2019 19:00:00 7,3 4,4 4 2 8 4 S 1024,9 0 0,0
16.02.2019 18:00:00 10,7 5,2 5 3 10 5 SSW 1024,9 38 0,0
16.02.2019 17:00:00 13,3 6,0 9 5 20 11 SW 1025,2 60 0,0
16.02.2019 16:00:00 14,0 6,2 14 8 22 12 SW 1025,5 60 0,0
16.02.2019 15:00:00 14,0 6,7 13 7 25 13 SW 1025,7 60 0,0
16.02.2019 14:00:00 13,7 6,9 14 8 22 12 SW 1026,0 60 0,0
16.02.2019 13:00:00 12,7 6,3 11 6 18 10 SSW 1026,3 60 0,0
16.02.2019 12:00:00 10,3 4,9 13 7 20 11 SW 1026,7 60 0,0
16.02.2019 11:00:00 8,4 4,0 14 8 21 11 SW 1026,7 60 0,0
16.02.2019 10:00:00 6,9 3,4 10 5 17 9 SSW 1026,6 60 0,0
16.02.2019 09:00:00 4,3 2,1 8 4 19 10 SW 1026,4 38 0,0
16.02.2019 08:00:00 3,5 1,3 12 7 18 10 SSW 1025,9 0 0,0
16.02.2019 07:00:00 4,6 2,0 11 6 20 11 S 1025,4 0 0,0
16.02.2019 06:00:00 4,6 1,9 13 7 17 9 S 1025,7 0 0,0
16.02.2019 05:00:00 5,0 2,2 13 7 18 10 S 1025,4 0 0,0
16.02.2019 04:00:00 6,3 2,6 8 5 15 8 S 1025,6 0 0,0
16.02.2019 03:00:00 5,7 2,3 11 6 20 11 S 1026,0 0 0,0
16.02.2019 02:00:00 7,0 2,8 11 6 15 8 S 1026,5 0 0,0
16.02.2019 01:00:00 - - - - - - - - 0 -
16.02.2019 00:00:00 7,4 2,3 8 4 16 8 S 1026,5 0 0,0
15.02.2019 23:00:00 7,8 2,4 9 5 14 8 SSW 1026,7 0 0,0
15.02.2019 22:00:00 8,6 2,0 9 5 12 6 S 1026,9 0 0,0
15.02.2019 21:00:00 9,6 2,0 10 5 12 6 S 1026,9 0 0,0
15.02.2019 20:00:00 8,7 2,5 6 3 8 5 S 1027,3 0 0,0
15.02.2019 19:00:00 9,0 3,1 4 2 9 5 S 1027,4 0 0,0
15.02.2019 18:00:00 13,5 3,9 6 3 10 5 SSW 1027,4 49 0,0
15.02.2019 17:00:00 16,0 4,9 7 4 17 9 S 1027,6 60 0,0
15.02.2019 16:00:00 16,5 3,5 13 7 18 10 S 1028,2 60 0,0
15.02.2019 15:00:00 16,0 4,5 9 5 20 11 S 1028,8 60 0,0
15.02.2019 14:00:00 14,6 3,1 11 6 21 11 S 1029,6 60 0,0
15.02.2019 13:00:00 13,4 1,9 11 6 22 12 S 1030,3 60 0,0
15.02.2019 12:00:00 11,7 2,0 13 7 19 10 SSW 1030,9 60 0,0
15.02.2019 11:00:00 10,6 1,4 8 4 16 9 S 1031,1 60 0,0
15.02.2019 10:00:00 7,3 1,2 9 5 15 8 SE 1031,3 60 0,0
15.02.2019 09:00:00 0,0 -1,5 4 2 7 4 E 1031,6 36 0,0
15.02.2019 08:00:00 -1,9 -2,7 0 0 8 4 N 1031,4 0 0,0
15.02.2019 07:00:00 -1,2 -2,2 0 0 9 5 N 1031,4 0 0,0
15.02.2019 06:00:00 -1,9 -2,7 5 3 8 5 E 1031,7 0 0,0
15.02.2019 05:00:00 -1,0 -1,9 4 2 8 4 E 1031,6 0 0,0
15.02.2019 04:00:00 1,2 -0,6 5 3 9 5 E 1031,7 0 0,0
15.02.2019 03:00:00 -0,9 -1,6 5 3 7 4 ESE 1032,4 0 0,0
15.02.2019 02:00:00 0,0 -1,0 4 2 6 3 ESE 1032,7 0 0,0
15.02.2019 01:00:00 0,7 -0,7 7 4 9 5 ESE 1033,0 0 0,0
15.02.2019 00:00:00 0,5 -0,8 4 2 4 2 SE 1033,0 0 0,0
14.02.2019 23:00:00 0,8 -0,5 4 2 6 3 SE 1032,8 0 0,0
14.02.2019 22:00:00 2,2 0,3 0 0 6 4 N 1032,9 0 0,0
14.02.2019 21:00:00 2,9 0,9 4 2 8 5 SE 1032,9 0 0,0
14.02.2019 20:00:00 3,6 0,9 0 0 5 3 N 1033,0 0 0,0
14.02.2019 19:00:00 5,2 1,9 4 2 7 4 S 1033,0 0 0,0
14.02.2019 18:00:00 9,5 3,3 5 3 7 4 E 1033,2 48 0,0
14.02.2019 17:00:00 13,6 3,8 5 3 10 5 E 1033,4 60 0,0
14.02.2019 16:00:00 13,9 2,5 9 5 16 8 SE 1033,9 60 0,0
14.02.2019 15:00:00 13,3 2,2 10 5 16 9 ESE 1034,3 60 0,0
14.02.2019 14:00:00 12,4 2,7 8 4 13 7 SE 1034,7 60 0,0
14.02.2019 13:00:00 10,4 3,4 7 4 14 7 SSE 1035,2 60 0,0
14.02.2019 12:00:00 8,7 2,5 - - - - - 1036,1 40 -
14.02.2019 11:00:00 6,2 2,2 7 4 10 5 ESE 1035,7 60 0,0
14.02.2019 10:00:00 2,6 1,2 5 3 7 4 E 1035,8 60 0,0
14.02.2019 09:00:00 -1,0 -1,3 4 2 9 5 SSW 1036,2 32 0,0
14.02.2019 08:00:00 -1,5 -1,8 4 2 5 3 S 1035,6 0 0,0
14.02.2019 07:00:00 -1,8 -2,3 4 2 8 4 ESE 1035,4 0 0,0
14.02.2019 06:00:00 -1,0 -1,2 4 2 7 4 SW 1035,1 0 0,0
14.02.2019 05:00:00 -1,0 -1,3 4 2 5 3 S 1035,2 0 0,0
14.02.2019 04:00:00 -0,2 -0,8 4 2 10 5 SSE 1035,2 0 0,0
14.02.2019 03:00:00 -1,2 -1,4 4 2 6 4 ENE 1035,3 0 0,0
14.02.2019 02:00:00 -0,6 -1,0 4 2 5 3 S 1035,3 0 0,0
14.02.2019 01:00:00 -0,2 -1,2 4 2 9 5 E 1035,6 0 0,0
14.02.2019 00:00:00 1,9 0,5 7 4 9 5 S 1035,3 0 0,0
13.02.2019 23:00:00 2,5 0,9 4 2 9 5 ESE 1035,8 0 0,0
13.02.2019 22:00:00 3,2 1,5 7 4 11 6 S 1035,6 0 0,0
13.02.2019 21:00:00 2,7 0,9 6 4 9 5 S 1035,7 0 0,0
13.02.2019 20:00:00 3,5 1,5 5 3 10 5 S 1036,1 0 0,0
13.02.2019 19:00:00 4,1 1,7 7 4 10 5 SE 1036,0 0 0,0
13.02.2019 18:00:00 6,0 2,1 8 4 21 11 SW 1035,8 34 0,0
13.02.2019 17:00:00 7,6 2,8 13 7 24 13 SW 1035,8 60 0,0
13.02.2019 16:00:00 8,1 3,1 14 8 22 12 SSW 1035,9 60 0,0
13.02.2019 15:00:00 8,2 3,3 13 7 22 12 SSW 1035,6 60 0,0
13.02.2019 14:00:00 7,8 3,1 13 7 24 13 SSW 1036,2 60 0,0
13.02.2019 13:00:00 6,8 2,5 15 8 23 12 SW 1036,9 60 0,0
13.02.2019 12:00:00 5,8 2,3 13 7 24 13 SW 1037,3 60 0,0
13.02.2019 11:00:00 4,7 2,0 15 8 26 14 SW 1037,1 60 0,0
13.02.2019 10:00:00 3,8 1,7 14 7 21 11 SW 1037,0 60 0,0
13.02.2019 09:00:00 2,8 1,0 13 7 19 10 SW 1036,6 7 0,0
13.02.2019 08:00:00 3,5 1,8 10 5 19 10 SSW 1036,4 0 0,0
13.02.2019 07:00:00 3,6 1,9 11 6 20 11 SSW 1036,3 0 0,0
13.02.2019 06:00:00 3,6 2,0 13 7 18 10 SSW 1036,1 0 0,0
13.02.2019 05:00:00 4,2 2,3 12 7 18 10 SW 1036,4 0 0,0
13.02.2019 04:00:00 4,2 2,4 11 6 25 13 SW 1036,3 0 0,0
13.02.2019 03:00:00 4,4 2,5 18 10 25 13 SSW 1036,4 0 0,0
13.02.2019 02:00:00 4,2 2,5 16 9 24 13 SW 1036,7 0 0,0
13.02.2019 01:00:00 3,7 2,2 11 6 17 9 SW 1036,6 0 0,0
13.02.2019 00:00:00 3,3 2,1 11 6 21 12 SSW 1036,2 0 0,0
12.02.2019 23:00:00 3,7 2,3 10 5 19 11 SSW 1036,1 0 0,0
12.02.2019 22:00:00 4,9 2,9 10 5 21 12 SW 1036,1 0 0,0
12.02.2019 21:00:00 5,4 3,5 11 6 18 10 SW 1035,9 0 0,0
12.02.2019 20:00:00 5,2 3,2 10 6 18 10 SSW 1035,6 0 0,0
12.02.2019 19:00:00 6,1 3,6 11 6 18 10 SW 1035,6 0 0,0
12.02.2019 18:00:00 7,0 2,6 7 4 14 8 SW 1035,2 1 0,0
12.02.2019 17:00:00 8,4 3,5 10 5 17 9 WSW 1035,1 36 0,0
12.02.2019 16:00:00 9,0 4,7 11 6 24 13 WSW 1035,1 54 0,0
12.02.2019 15:00:00 8,8 4,3 15 8 25 13 WSW 1034,9 57 0,0
12.02.2019 14:00:00 8,2 4,7 13 7 21 12 WSW 1035,1 60 0,0
12.02.2019 13:00:00 6,5 4,3 13 7 21 11 WSW 1035,5 52 0,0
12.02.2019 12:00:00 5,2 3,8 11 6 20 11 WSW 1035,7 4 0,0
12.02.2019 11:00:00 3,9 2,9 13 7 22 12 SW 1035,3 8 0,0
12.02.2019 10:00:00 2,9 2,3 12 6 18 10 SW 1035,2 0 0,0
12.02.2019 09:00:00 2,3 2,3 13 7 18 10 WSW 1034,7 0 0,0
12.02.2019 08:00:00 2,0 2,0 13 7 18 10 SW 1034,1 0 0,0
12.02.2019 07:00:00 1,6 1,6 11 6 16 8 SW 1033,7 0 0,0
12.02.2019 06:00:00 1,4 1,4 9 5 13 7 WSW 1034,0 0 0,0
12.02.2019 05:00:00 0,9 0,9 7 4 12 6 SW 1033,9 0 0,0
12.02.2019 04:00:00 -0,4 -0,4 7 4 9 5 SW 1034,1 0 0,0
12.02.2019 03:00:00 0,3 0,3 6 3 10 5 SW 1034,2 0 0,0
12.02.2019 02:00:00 1,0 1,0 7 4 14 8 WSW 1034,2 0 0,0
12.02.2019 01:00:00 0,3 0,3 4 2 9 5 WSW 1033,6 0 0,0
12.02.2019 00:00:00 1,5 1,5 7 4 11 6 WSW 1033,3 0 0,0
11.02.2019 23:00:00 1,3 1,3 5 3 9 5 WSW 1032,3 0 0,0
11.02.2019 22:00:00 2,3 2,3 7 4 9 5 W 1031,9 0 0,0
11.02.2019 21:00:00 3,6 3,4 6 3 10 5 WNW 1031,3 0 0,0
11.02.2019 20:00:00 4,2 3,6 7 4 12 6 WNW 1030,9 0 0,0
11.02.2019 19:00:00 5,1 4,1 4 2 17 9 NW 1029,4 0 0,0
11.02.2019 18:00:00 6,4 4,4 14 7 23 13 NNW 1028,7 11 0,0
11.02.2019 17:00:00 6,9 4,1 15 8 31 17 NW 1027,4 14 0,0
11.02.2019 16:00:00 7,4 3,4 19 11 32 17 NNW 1026,4 57 0,0
11.02.2019 15:00:00 7,5 3,7 19 10 35 19 NNW 1025,0 31 0,0

tt = Température de l'air
td = dewpoint
ff = Vitesse du vent
fx = gusts
dd = Direction du vent
ppp = reduced air pressure
sd = Ensoleillement
rr = Quantités de précipitations

stations d'obs. à proximité